Terminal Aerodrome Forecast
Issued by NWS

Home | Current Version | Previous Version | Text Only | Print | Product List | Glossary On
Versions: 1 2 3 4 5 6 7 8 9 10 11 12 13 14 15
000
FTUS43 KICT 030520
TAFHUT
TAF
KHUT 030520Z 0306/0406 16012KT P6SM SCT200
     FM031400 18015G23KT P6SM BKN100
     FM031900 18021G30KT P6SM FEW120
     FM040100 16014KT P6SM SCT150=

USA.gov is the U.S. government's official web portal to all federal, state and local government web resources and services.